Terminal Aerodrome Forecast
Issued by NWS

Home | Current Version | Previous Version | Text Only | Print | Product List | Glossary On
Versions: 1 2 3 4 5 6 7 8 9 10 11 12 13
772
FTUS43 KMPX 172320
TAFRWF
TAF
KRWF 172320Z 1800/1824 27012KT P6SM SKC
     FM181200 30006KT P6SM SCT250
     FM182000 20004KT P6SM BKN200=

USA.gov is the U.S. government's official web portal to all federal, state and local government web resources and services.